Amarillo, TX (79174)

9:39 PM CDT on April 20, 2015 (GMT -0500)
Oliver-Eakle | | Change Station
CLOSE
Current Station
Personal Weather Station
Location: Amarillo, TX
Elevation: 3678 ft
Nearby Weather Stations

Elev 3678 ft 35.19 °N, 101.84 °W | Updated 0 second ago

Rain
Rain
55.3 °F
Feels Like 55.3 °F
N
2.6
Wind Variable Wind from South
Gusts 10.4 mph

Today
High -- | Low -- °F
--% Chance of Precip.
Yesterday
High -- | Low -- °F
Precip. -- in
7:09 AM 8:23 PM
Waxing Crescent, 7% visible
Pressure 29.86 in
Visibility 10.0 miles
Clouds Scattered Clouds 5500 ft
Overcast 7000 ft
Dew Point 45 °F
Humidity 69%
Rainfall 0.11 in
Snow Depth Not available.
UV 0 out of 12
Pollen 9.10 out of 12
Air Quality Not available.
Flu Activity Local Activity
METAR KAMA 210153Z 00000KT 10SM -TSRA SCT055 OVC070 16/01 A2993 RMK AO2 LTG DSNT W RAB26 TSB21 SLP111 P0000 T01610011

More Conditions Fewer Conditions

Pressure 29.86 in
Visibility 10.0 miles
Clouds Scattered Clouds 5500 ft
Overcast 7000 ft
Dew Point 45 °F
Humidity 69%
Rainfall 0.11 in
Snow Depth Not available.
UV 0 out of 12
Pollen 9.10 out of 12
Air Quality Not available.
Flu Activity Local Activity
METAR KAMA 210153Z 00000KT 10SM -TSRA SCT055 OVC070 16/01 A2993 RMK AO2 LTG DSNT W RAB26 TSB21 SLP111 P0000 T01610011

More Conditions Fewer Conditions

Nowcast | as of 7:53 PM CDT on April 20, 2015

Scattered to numerous showers along with a few isolated thunderstorms will move east across the western two thirds of Texas and Oklahoma panhandles this evening. Through 10 PM...hourly rainfall amounts up to two tenths inch can be expected. Brief wind gusts to around 40 mph can be expected as the showers and thunderstorms move east at 35 mph. Additional showers and thunderstorms are expected later this evening and overnight across additional locations across the eastern one third of the panhandles.

×

10-Day Weather Forecast

Almanac

Astronomy

Apr. 20, 2015 Rise Set
Actual Time
Civil Twilight
Nautical Twilight
Astronomical Twilight
Moon
Length of Visible Light
Length of Day
Tomorrow will be .
, % of the Moon is Illuminated

Today's Extremes

State Highs State Lows

Community

WunderPhotos

Upload Photos

1,815,283 photos uploaded!

WunderBlogs® & News

Nearby

Air Quality

  Air Quality AQ Index Pollutant
Not available.

Snow Depth

Station Depth Elevation

Earthquake Activity

City Distance Mag. Time & Date
Minimum magnitude displayed is 2.5.

Coastal Water Temperatures

Place Temperature

Stations

Nearby Weather Stations

Station Location Temp. Windchill Dew Point Humidity Wind Precip. Elev Updated Type